createdAt,value
2018-05-08T00:00:38.738Z,17.02
2018-05-08T00:02:30.485Z,15.20
2018-05-08T00:03:30.422Z,13.96
2018-05-08T00:05:22.191Z,15.20
2018-05-08T00:06:22.114Z,16.06
2018-05-08T00:08:13.893Z,11.28
2018-05-08T00:09:13.805Z,12.81
2018-05-08T00:11:05.565Z,9.75
2018-05-08T00:12:05.497Z,10.13
2018-05-08T00:13:57.277Z,12.52
2018-05-08T00:14:57.204Z,13.29
2018-05-08T00:16:48.968Z,11.76
2018-05-08T00:17:48.913Z,11.09
2018-05-08T00:19:40.705Z,13.68
2018-05-08T00:20:40.624Z,12.53
2018-05-08T00:22:32.373Z,11.09
2018-05-08T00:23:32.313Z,10.80
2018-05-08T00:25:24.077Z,9.37
2018-05-08T00:26:24.006Z,10.03
2018-05-08T00:28:15.771Z,3.72
2018-05-08T00:29:15.707Z,8.60
2018-05-08T00:31:07.495Z,6.88
2018-05-08T00:32:07.418Z,6.50
2018-05-08T00:33:59.189Z,8.31
2018-05-08T00:34:59.112Z,9.27
2018-05-08T00:36:50.870Z,9.84
2018-05-08T00:37:50.825Z,8.22
2018-05-08T00:39:42.573Z,4.68
2018-05-08T00:40:42.495Z,5.54
2018-05-08T00:42:34.264Z,3.72
2018-05-08T00:43:34.190Z,3.53
2018-05-08T00:45:25.961Z,2.10
2018-05-08T00:46:25.895Z,1.34
2018-05-08T00:48:17.648Z,2.86
2018-05-08T00:49:17.582Z,0.67
2018-05-08T00:51:09.363Z,0.00
2018-05-08T00:52:09.288Z,0.00
2018-05-08T00:54:01.060Z,0.00
2018-05-08T00:55:00.998Z,0.00
2018-05-08T00:56:52.765Z,0.00
2018-05-08T00:57:52.694Z,0.00
2018-05-08T00:59:44.454Z,0.00
2018-05-08T01:00:44.386Z,0.00
2018-05-08T01:02:36.149Z,0.00
2018-05-08T01:03:36.090Z,0.00
2018-05-08T01:05:27.849Z,0.00
2018-05-08T01:06:27.778Z,0.00
2018-05-08T01:08:19.571Z,0.00
2018-05-08T01:09:19.496Z,0.00
2018-05-08T01:11:11.277Z,0.00
2018-05-08T01:12:11.199Z,0.00
2018-05-08T01:14:02.946Z,0.00
2018-05-08T01:15:02.889Z,0.00
2018-05-08T01:16:54.652Z,0.00
2018-05-08T01:17:54.572Z,0.00
2018-05-08T01:19:46.366Z,0.00
2018-05-08T01:20:46.284Z,0.00
2018-05-08T01:22:38.031Z,0.00
2018-05-08T01:23:37.972Z,0.00
2018-05-08T01:25:29.745Z,0.00
2018-05-08T01:26:29.664Z,0.00
2018-05-08T01:28:21.430Z,0.00
2018-05-08T01:29:21.359Z,0.00
2018-05-08T01:31:13.140Z,0.00
2018-05-08T01:32:13.068Z,0.00
2018-05-08T01:34:04.821Z,0.00
2018-05-08T01:35:04.755Z,0.00
2018-05-08T01:36:56.535Z,0.00
2018-05-08T01:37:56.466Z,0.00
2018-05-08T01:39:48.210Z,0.00
2018-05-08T01:40:48.149Z,0.00
2018-05-08T01:42:39.905Z,0.00
2018-05-08T01:43:39.835Z,0.00
2018-05-08T01:45:31.610Z,0.00
2018-05-08T01:46:31.536Z,0.00
2018-05-08T01:48:23.298Z,0.00
2018-05-08T01:49:23.236Z,0.00
2018-05-08T01:51:15.035Z,0.00
2018-05-08T01:52:14.954Z,0.00
2018-05-08T01:54:06.705Z,0.00
2018-05-08T01:55:06.643Z,0.00
2018-05-08T01:56:58.408Z,0.00
2018-05-08T01:57:58.337Z,0.00
2018-05-08T01:59:50.120Z,0.00
2018-05-08T02:00:50.063Z,0.00
2018-05-08T02:02:41.823Z,0.00
2018-05-08T02:03:41.744Z,0.00
2018-05-08T02:05:33.519Z,0.00
2018-05-08T02:06:33.433Z,0.00
2018-05-08T02:08:25.188Z,0.00
2018-05-08T02:09:25.130Z,0.00
2018-05-08T02:11:16.897Z,0.00
2018-05-08T02:12:16.820Z,0.00
2018-05-08T02:14:08.571Z,0.00
2018-05-08T02:15:08.507Z,0.00
2018-05-08T02:17:00.288Z,0.00
2018-05-08T02:18:00.209Z,0.00
2018-05-08T02:19:51.963Z,0.00
2018-05-08T02:20:51.899Z,0.00
2018-05-08T02:22:43.667Z,0.00
2018-05-08T02:23:43.585Z,0.00
2018-05-08T02:25:35.345Z,0.00
2018-05-08T02:26:35.284Z,0.00
2018-05-08T02:28:27.052Z,0.00
2018-05-08T02:29:26.980Z,0.00
2018-05-08T02:31:18.736Z,0.00
2018-05-08T02:32:18.659Z,0.00
2018-05-08T02:34:10.428Z,0.00
2018-05-08T02:35:10.372Z,0.00
2018-05-08T02:37:02.118Z,0.00
2018-05-08T02:38:02.047Z,0.00
2018-05-08T02:39:53.849Z,0.00
2018-05-08T02:40:53.775Z,0.00
2018-05-08T02:42:45.553Z,0.00
2018-05-08T02:43:45.481Z,0.00
2018-05-08T02:45:37.244Z,0.00
2018-05-08T02:46:37.182Z,0.00
2018-05-08T02:48:28.959Z,0.00
2018-05-08T02:49:28.894Z,0.00
2018-05-08T02:51:20.648Z,0.00
2018-05-08T02:52:20.575Z,0.00
2018-05-08T02:54:12.339Z,0.00
2018-05-08T02:55:12.276Z,0.00
2018-05-08T02:57:04.061Z,0.00
2018-05-08T02:58:03.988Z,0.00
2018-05-08T02:59:55.740Z,0.00
2018-05-08T03:00:55.678Z,0.00
2018-05-08T03:02:47.452Z,0.00
2018-05-08T03:03:47.383Z,0.00
2018-05-08T03:05:39.139Z,0.00
2018-05-08T03:06:39.080Z,0.00
2018-05-08T03:08:30.843Z,0.00
2018-05-08T03:09:30.769Z,0.00
2018-05-08T03:11:22.518Z,0.00
2018-05-08T03:12:22.472Z,0.00
2018-05-08T03:14:14.234Z,0.00
2018-05-08T03:15:14.167Z,0.00
2018-05-08T03:17:05.916Z,0.00
2018-05-08T03:18:05.845Z,0.00
2018-05-08T03:19:57.622Z,0.00
2018-05-08T03:20:57.562Z,0.00
2018-05-08T03:22:49.320Z,0.00
2018-05-08T03:23:49.247Z,0.00
2018-05-08T03:25:41.026Z,0.00
2018-05-08T03:26:40.962Z,0.00
2018-05-08T03:28:32.733Z,0.00
2018-05-08T03:29:32.649Z,0.00
2018-05-08T03:31:24.404Z,0.00
2018-05-08T03:32:24.347Z,0.00
2018-05-08T03:34:16.119Z,0.00
2018-05-08T03:35:16.022Z,0.00
2018-05-08T03:37:07.786Z,0.00
2018-05-08T03:38:07.712Z,0.00
2018-05-08T03:39:59.490Z,0.00
2018-05-08T03:40:59.395Z,0.00
2018-05-08T03:42:51.178Z,0.00
2018-05-08T03:43:51.104Z,0.00
2018-05-08T03:45:42.845Z,0.00
2018-05-08T03:46:42.783Z,0.00
2018-05-08T03:48:34.540Z,0.00
2018-05-08T03:49:34.475Z,0.00
2018-05-08T03:51:26.244Z,0.00
2018-05-08T03:52:26.187Z,0.00
2018-05-08T03:54:17.981Z,0.00
2018-05-08T03:55:17.910Z,0.00
2018-05-08T03:57:09.705Z,0.00
2018-05-08T03:58:09.637Z,0.00
2018-05-08T04:00:01.393Z,0.00
2018-05-08T04:01:01.326Z,0.00
2018-05-08T04:02:53.150Z,0.00
2018-05-08T04:03:53.023Z,0.00
2018-05-08T04:05:44.825Z,0.00
2018-05-08T04:06:44.746Z,0.00
2018-05-08T04:08:36.506Z,0.00
2018-05-08T04:09:36.433Z,0.00
2018-05-08T04:11:28.227Z,0.00
2018-05-08T04:12:28.157Z,0.00
2018-05-08T04:14:19.918Z,0.00
2018-05-08T04:15:19.851Z,0.00
2018-05-08T04:17:11.613Z,0.00
2018-05-08T04:18:11.551Z,0.00
2018-05-08T04:20:03.308Z,0.00
2018-05-08T04:21:03.313Z,0.00
2018-05-08T04:22:54.979Z,1.33
2018-05-08T04:23:54.920Z,1.90
2018-05-08T04:25:46.699Z,0.19
2018-05-08T04:26:46.626Z,0.00
2018-05-08T04:28:38.386Z,0.00
2018-05-08T04:29:38.313Z,2.76
2018-05-08T04:31:30.063Z,2.67
2018-05-08T04:32:30.006Z,0.00
2018-05-08T04:34:21.778Z,0.00
2018-05-08T04:35:21.705Z,0.28
2018-05-08T04:37:13.448Z,3.72
2018-05-08T04:38:13.387Z,0.00
2018-05-08T04:40:05.139Z,1.90
2018-05-08T04:41:05.067Z,1.90
2018-05-08T04:42:56.839Z,3.53
2018-05-08T04:43:56.781Z,3.53
2018-05-08T04:45:48.575Z,8.97
2018-05-08T04:46:48.502Z,11.65
2018-05-08T04:48:40.256Z,9.74
2018-05-08T04:49:40.191Z,8.59
2018-05-08T04:51:31.945Z,7.35
2018-05-08T04:52:31.872Z,6.30
2018-05-08T04:54:23.639Z,6.49
2018-05-08T04:55:23.565Z,8.97
2018-05-08T04:57:15.320Z,12.42
2018-05-08T04:58:15.249Z,10.13
2018-05-08T05:00:07.007Z,14.04
2018-05-08T05:01:06.943Z,15.19
2018-05-08T05:02:58.707Z,15.96
2018-05-08T05:03:58.641Z,16.44
2018-05-08T05:05:50.441Z,15.20
2018-05-08T05:06:50.392Z,18.74
2018-05-08T05:08:42.128Z,22.08
2018-05-08T05:09:42.058Z,25.73
2018-05-08T05:11:33.848Z,33.67
2018-05-08T05:12:33.762Z,33.49
2018-05-08T05:14:25.561Z,37.92
2018-05-08T05:15:25.463Z,44.81
2018-05-08T05:17:17.285Z,59.71
2018-05-08T05:18:17.204Z,63.54
2018-05-08T05:20:08.970Z,78.13
2018-05-08T05:21:08.907Z,92.29
2018-05-08T05:23:00.673Z,99.99
2018-05-08T05:24:00.618Z,99.99
2018-05-08T05:25:52.381Z,99.99
2018-05-08T05:26:52.306Z,98.97
2018-05-08T05:28:44.074Z,99.99
2018-05-08T05:29:44.014Z,99.79
2018-05-08T05:31:35.839Z,97.28
2018-05-08T05:32:35.718Z,94.86
2018-05-08T05:34:27.495Z,90.07
2018-05-08T05:35:27.444Z,88.37
2018-05-08T05:37:19.226Z,84.21
2018-05-08T05:38:19.138Z,81.75
2018-05-08T05:40:10.933Z,87.17
2018-05-08T05:41:10.865Z,85.91
2018-05-08T05:43:02.651Z,83.98
2018-05-08T05:44:02.588Z,85.18
2018-05-08T05:45:54.367Z,84.94
2018-05-08T05:46:54.283Z,83.84
2018-05-08T05:48:46.076Z,82.32
2018-05-08T05:49:46.011Z,79.37
2018-05-08T05:51:37.799Z,83.25
2018-05-08T05:52:37.731Z,80.69
2018-05-08T05:54:29.543Z,86.83
2018-05-08T05:55:29.509Z,84.52
2018-05-08T05:57:21.258Z,85.77
2018-05-08T05:58:21.195Z,83.88
2018-05-08T06:00:12.974Z,80.20
2018-05-08T06:01:12.909Z,85.24
2018-05-08T06:03:04.683Z,83.15
2018-05-08T06:04:04.617Z,81.93
2018-05-08T06:05:56.450Z,76.21
2018-05-08T06:06:56.338Z,80.09
2018-05-08T06:08:48.119Z,79.49
2018-05-08T06:09:48.157Z,78.66
2018-05-08T06:11:39.858Z,71.44
2018-05-08T06:12:39.792Z,72.41
2018-05-08T06:14:31.575Z,70.93
2018-05-08T06:15:31.523Z,69.57
2018-05-08T06:17:23.318Z,64.36
2018-05-08T06:18:23.241Z,67.76
2018-05-08T06:20:15.057Z,69.54
2018-05-08T06:21:14.999Z,77.22
2018-05-08T06:23:06.765Z,75.61
2018-05-08T06:24:06.694Z,73.38
2018-05-08T06:25:58.466Z,82.18
2018-05-08T06:26:58.405Z,83.96
2018-05-08T06:28:50.168Z,79.20
2018-05-08T06:29:50.119Z,76.72
2018-05-08T06:31:41.901Z,69.45
2018-05-08T06:32:41.837Z,68.02
2018-05-08T06:34:33.606Z,60.25
2018-05-08T06:35:33.569Z,62.10
2018-05-08T06:37:25.331Z,69.32
2018-05-08T06:38:25.273Z,64.01
2018-05-08T06:40:17.053Z,69.12
2018-05-08T06:41:16.995Z,67.28
2018-05-08T06:43:08.788Z,64.04
2018-05-08T06:44:08.727Z,65.47
2018-05-08T06:46:00.505Z,64.56
2018-05-08T06:47:00.455Z,68.99
2018-05-08T06:48:52.230Z,64.69
2018-05-08T06:49:52.170Z,64.17
2018-05-08T06:51:43.971Z,60.14
2018-05-08T06:52:43.912Z,56.40
2018-05-08T06:54:35.675Z,54.03
2018-05-08T06:55:35.623Z,54.52
2018-05-08T06:57:27.406Z,52.70
2018-05-08T06:58:27.343Z,51.87
2018-05-08T07:00:19.151Z,47.51
2018-05-08T07:01:19.089Z,46.95
2018-05-08T07:03:10.875Z,43.85
2018-05-08T07:04:10.809Z,43.14
2018-05-08T07:06:02.593Z,43.61
2018-05-08T07:07:02.545Z,44.19
2018-05-08T07:08:54.332Z,46.63
2018-05-08T07:09:54.270Z,46.00
2018-05-08T07:11:46.053Z,42.21
2018-05-08T07:12:45.995Z,40.94
2018-05-08T07:14:37.775Z,40.17
2018-05-08T07:15:37.821Z,40.27
2018-05-08T07:17:29.502Z,39.70
2018-05-08T07:18:29.445Z,38.92
2018-05-08T07:20:21.219Z,39.96
2018-05-08T07:21:21.173Z,39.20
2018-05-08T07:23:12.956Z,39.12
2018-05-08T07:24:12.896Z,38.53
2018-05-08T07:26:04.704Z,38.73
2018-05-08T07:27:04.646Z,38.84
2018-05-08T07:28:56.460Z,38.45
2018-05-08T07:29:56.439Z,38.04
2018-05-08T07:31:48.191Z,38.22
2018-05-08T07:32:48.148Z,38.12
2018-05-08T07:34:39.948Z,39.37
2018-05-08T07:35:39.887Z,39.98
2018-05-08T07:37:31.677Z,43.08
2018-05-08T07:38:31.626Z,42.90
2018-05-08T07:40:23.409Z,40.97
2018-05-08T07:41:23.348Z,41.48
2018-05-08T07:43:15.137Z,40.56
2018-05-08T07:44:15.075Z,41.09
2018-05-08T07:46:06.851Z,43.70
2018-05-08T07:47:06.850Z,44.04
2018-05-08T07:48:58.586Z,46.05
2018-05-08T07:49:58.531Z,44.05
2018-05-08T07:51:50.348Z,41.32
2018-05-08T07:52:50.255Z,42.10
2018-05-08T07:54:42.036Z,42.55
2018-05-08T07:55:41.980Z,43.25
2018-05-08T07:57:33.782Z,43.70
2018-05-08T07:58:33.701Z,44.74
2018-05-08T08:00:25.490Z,46.30
2018-05-08T08:01:25.428Z,45.40
2018-05-08T08:03:17.291Z,46.42
2018-05-08T08:04:17.150Z,45.28
2018-05-08T08:06:08.925Z,42.79
2018-05-08T08:07:08.877Z,42.65
2018-05-08T08:09:00.690Z,43.18
2018-05-08T08:10:00.601Z,43.19
2018-05-08T08:11:52.378Z,41.21
2018-05-08T08:12:52.327Z,39.75
2018-05-08T08:14:44.115Z,40.53
2018-05-08T08:15:44.057Z,40.17
2018-05-08T08:17:35.831Z,37.16
2018-05-08T08:18:35.860Z,38.12
2018-05-08T08:20:27.599Z,37.71
2018-05-08T08:21:27.530Z,37.63
2018-05-08T08:23:19.318Z,40.70
2018-05-08T08:24:19.269Z,39.14
2018-05-08T08:26:11.055Z,39.37
2018-05-08T08:27:10.995Z,39.00
2018-05-08T08:29:02.799Z,37.81
2018-05-08T08:30:02.730Z,37.30
2018-05-08T08:31:54.505Z,37.73
2018-05-08T08:32:54.454Z,37.27
2018-05-08T08:34:46.240Z,36.79
2018-05-08T08:35:46.183Z,37.05
2018-05-08T08:37:37.953Z,38.49
2018-05-08T08:38:37.903Z,40.72
2018-05-08T08:40:29.691Z,39.51
2018-05-08T08:41:29.629Z,38.35
2018-05-08T08:43:21.406Z,36.36
2018-05-08T08:44:21.362Z,35.93
2018-05-08T08:46:13.155Z,33.85
2018-05-08T08:47:13.085Z,35.52
2018-05-08T08:49:04.858Z,33.64
2018-05-08T08:50:04.815Z,32.86
2018-05-08T08:51:56.604Z,33.51
2018-05-08T08:52:56.540Z,34.28
2018-05-08T08:54:48.328Z,33.89
2018-05-08T08:55:48.266Z,33.98
2018-05-08T08:57:40.055Z,36.11
2018-05-08T08:58:40.010Z,34.47
2018-05-08T09:00:31.907Z,35.84
2018-05-08T09:01:31.763Z,35.58
2018-05-08T09:03:23.518Z,33.75
2018-05-08T09:04:23.471Z,34.21
2018-05-08T09:06:15.261Z,33.97
2018-05-08T09:07:15.207Z,34.67
2018-05-08T09:09:07.010Z,32.66
2018-05-08T09:10:06.958Z,32.27
2018-05-08T09:11:58.844Z,32.46
2018-05-08T09:12:58.725Z,32.03
2018-05-08T09:14:50.519Z,34.63
2018-05-08T09:15:50.474Z,33.95
2018-05-08T09:17:42.259Z,32.84
2018-05-08T09:18:42.201Z,34.22
2018-05-08T09:20:33.987Z,32.60
2018-05-08T09:21:33.947Z,32.62
2018-05-08T09:23:25.732Z,31.35
2018-05-08T09:24:25.675Z,32.03
2018-05-08T09:26:17.496Z,31.43
2018-05-08T09:27:17.445Z,30.83
2018-05-08T09:29:09.212Z,31.65
2018-05-08T09:30:09.175Z,30.58
2018-05-08T09:32:00.950Z,30.71
2018-05-08T09:33:00.897Z,31.41
2018-05-08T09:34:52.727Z,29.64
2018-05-08T09:35:52.678Z,29.79
2018-05-08T09:37:44.461Z,31.33
2018-05-08T09:38:44.403Z,31.52
2018-05-08T09:40:36.177Z,32.52
2018-05-08T09:41:36.130Z,30.47
2018-05-08T09:43:27.913Z,30.26
2018-05-08T09:44:27.860Z,30.57
2018-05-08T09:46:19.627Z,30.13
2018-05-08T09:47:19.584Z,31.48
2018-05-08T09:49:11.381Z,32.19
2018-05-08T09:50:11.309Z,31.40
2018-05-08T09:52:03.094Z,32.78
2018-05-08T09:53:03.037Z,31.43
2018-05-08T09:54:54.874Z,30.47
2018-05-08T09:55:54.763Z,30.54
2018-05-08T09:57:46.544Z,32.91
2018-05-08T09:58:46.490Z,33.59
2018-05-08T10:00:38.263Z,34.08
2018-05-08T10:01:38.261Z,33.88
2018-05-08T10:03:29.996Z,32.58
2018-05-08T10:04:29.939Z,32.70
2018-05-08T10:06:21.746Z,30.47
2018-05-08T10:07:21.704Z,30.45
2018-05-08T10:09:13.477Z,32.37
2018-05-08T10:10:13.417Z,32.47
2018-05-08T10:12:05.197Z,32.26
2018-05-08T10:13:05.149Z,31.35
2018-05-08T10:14:56.930Z,32.39
2018-05-08T10:15:56.875Z,32.79
2018-05-08T10:17:48.672Z,31.73
2018-05-08T10:18:48.602Z,32.32
2018-05-08T10:20:40.489Z,32.63
2018-05-08T10:21:40.368Z,32.60
2018-05-08T10:23:32.303Z,33.96
2018-05-08T10:24:32.099Z,32.50
2018-05-08T10:26:23.987Z,32.42
2018-05-08T10:27:23.840Z,32.73
2018-05-08T10:29:15.619Z,32.10
2018-05-08T10:30:15.560Z,32.39
2018-05-08T10:32:07.351Z,32.99
2018-05-08T10:33:07.400Z,32.32
2018-05-08T10:34:59.111Z,31.66
2018-05-08T10:35:59.062Z,30.78
2018-05-08T10:37:50.877Z,29.61
2018-05-08T10:38:50.813Z,30.49
2018-05-08T10:40:42.627Z,30.10
2018-05-08T10:41:42.566Z,30.28
2018-05-08T10:43:34.372Z,29.91
2018-05-08T10:44:34.316Z,29.22
2018-05-08T10:46:26.096Z,30.46
2018-05-08T10:47:26.043Z,30.77
2018-05-08T10:49:17.842Z,30.85
2018-05-08T10:50:17.781Z,30.96
2018-05-08T10:52:09.560Z,31.84
2018-05-08T10:53:09.512Z,31.34
2018-05-08T10:55:01.301Z,32.31
2018-05-08T10:56:01.240Z,33.17
2018-05-08T10:57:53.014Z,32.59
2018-05-08T10:58:52.967Z,32.29
2018-05-08T11:00:44.758Z,32.70
2018-05-08T11:01:44.777Z,33.28
2018-05-08T11:03:36.486Z,32.39
2018-05-08T11:04:36.425Z,32.97
2018-05-08T11:06:28.204Z,33.25
2018-05-08T11:07:28.157Z,33.83
2018-05-08T11:09:20.007Z,33.61
2018-05-08T11:10:19.945Z,34.56
2018-05-08T11:12:11.722Z,33.78
2018-05-08T11:13:11.676Z,34.17
2018-05-08T11:15:03.465Z,34.74
2018-05-08T11:16:03.401Z,35.22
2018-05-08T11:17:55.174Z,35.59
2018-05-08T11:18:55.123Z,36.48
2018-05-08T11:20:46.913Z,36.08
2018-05-08T11:21:46.848Z,36.77
2018-05-08T11:23:38.663Z,36.19
2018-05-08T11:24:38.573Z,35.59
2018-05-08T11:26:30.368Z,36.18
2018-05-08T11:27:30.302Z,35.59
2018-05-08T11:29:22.084Z,36.16
2018-05-08T11:30:22.017Z,37.23
2018-05-08T11:32:13.800Z,36.06
2018-05-08T11:33:13.747Z,36.74
2018-05-08T11:35:05.516Z,37.13
2018-05-08T11:36:05.453Z,36.35
2018-05-08T11:37:57.219Z,35.38
2018-05-08T11:38:57.160Z,35.09
2018-05-08T11:40:48.929Z,35.28
2018-05-08T11:41:48.865Z,35.77
2018-05-08T11:43:40.640Z,35.77
2018-05-08T11:44:40.618Z,36.25
2018-05-08T11:46:32.390Z,36.35
2018-05-08T11:47:32.321Z,35.57
2018-05-08T11:49:24.098Z,36.18
2018-05-08T11:50:24.099Z,35.38
2018-05-08T11:52:15.824Z,35.28
2018-05-08T11:53:15.769Z,35.36
2018-05-08T11:55:07.553Z,36.04
2018-05-08T11:56:07.489Z,35.94
2018-05-08T11:57:59.290Z,36.62
2018-05-08T11:58:59.219Z,36.41
2018-05-08T12:00:50.993Z,37.21
2018-05-08T12:01:50.921Z,37.01
2018-05-08T12:03:42.680Z,36.91
2018-05-08T12:04:42.628Z,36.83
2018-05-08T12:06:34.416Z,36.91
2018-05-08T12:07:34.350Z,36.93
2018-05-08T12:09:26.149Z,37.30
2018-05-08T12:10:26.070Z,37.41
2018-05-08T12:12:17.849Z,37.98
2018-05-08T12:13:17.791Z,37.40
2018-05-08T12:15:09.589Z,37.88
2018-05-08T12:16:09.519Z,38.07
2018-05-08T12:18:01.287Z,39.04
2018-05-08T12:19:01.228Z,38.00
2018-05-08T12:20:52.999Z,37.71
2018-05-08T12:21:53.013Z,36.93
2018-05-08T12:23:44.697Z,36.64
2018-05-08T12:24:44.641Z,36.82
2018-05-08T12:26:36.413Z,36.44
2018-05-08T12:27:36.341Z,36.82
2018-05-08T12:29:28.207Z,36.72
2018-05-08T12:30:28.151Z,37.30
2018-05-08T12:32:19.938Z,36.91
2018-05-08T12:33:19.869Z,37.30
2018-05-08T12:35:11.641Z,37.49
2018-05-08T12:36:11.630Z,36.82
2018-05-08T12:38:03.369Z,36.91
2018-05-08T12:39:03.319Z,36.43
2018-05-08T12:40:55.092Z,36.72
2018-05-08T12:41:55.022Z,36.82
2018-05-08T12:43:46.809Z,36.82
2018-05-08T12:44:46.733Z,36.82
2018-05-08T12:46:38.509Z,38.25
2018-05-08T12:47:38.441Z,38.15
2018-05-08T12:49:30.204Z,37.69
2018-05-08T12:50:30.149Z,37.59
2018-05-08T12:52:21.918Z,38.56
2018-05-08T12:53:21.922Z,38.17
2018-05-08T12:55:13.646Z,37.79
2018-05-08T12:56:13.631Z,38.17
2018-05-08T12:58:05.317Z,38.39
2018-05-08T12:59:05.276Z,38.17
2018-05-08T13:00:57.044Z,38.45
2018-05-08T13:01:56.960Z,39.04
2018-05-08T13:03:48.733Z,39.34
2018-05-08T13:04:48.674Z,38.85
2018-05-08T13:06:40.474Z,39.04
2018-05-08T13:07:40.405Z,38.87
2018-05-08T13:09:32.191Z,39.16
2018-05-08T13:10:32.111Z,38.85
2018-05-08T13:12:23.882Z,38.96
2018-05-08T13:13:23.815Z,37.81
2018-05-08T13:15:15.597Z,37.61
2018-05-08T13:16:15.541Z,38.58
2018-05-08T13:18:07.324Z,39.06
2018-05-08T13:19:07.261Z,38.39
2018-05-08T13:20:59.056Z,37.71
2018-05-08T13:21:58.991Z,37.90
2018-05-08T13:23:50.752Z,37.71
2018-05-08T13:24:50.701Z,37.81
2018-05-08T13:26:42.472Z,38.29
2018-05-08T13:27:42.402Z,38.19
2018-05-08T13:29:34.175Z,38.00
2018-05-08T13:30:34.112Z,38.19
2018-05-08T13:32:25.906Z,39.06
2018-05-08T13:33:25.837Z,38.96
2018-05-08T13:35:17.609Z,39.36
2018-05-08T13:36:17.548Z,38.78
2018-05-08T13:38:09.305Z,38.96
2018-05-08T13:39:09.242Z,39.36
2018-05-08T13:41:01.013Z,38.95
2018-05-08T13:42:00.959Z,39.04
2018-05-08T13:43:52.839Z,38.85
2018-05-08T13:44:52.669Z,38.07
2018-05-08T13:46:44.442Z,38.46
2018-05-08T13:47:44.376Z,38.76
2018-05-08T13:49:36.147Z,39.16
2018-05-08T13:50:36.089Z,39.34
2018-05-08T13:52:27.862Z,39.94
2018-05-08T13:53:27.794Z,39.37
2018-05-08T13:55:19.561Z,39.08
2018-05-08T13:56:19.499Z,39.18
2018-05-08T13:58:11.279Z,38.31
2018-05-08T13:59:11.216Z,37.81
2018-05-08T14:01:02.996Z,37.49
2018-05-08T14:02:02.947Z,38.76
2018-05-08T14:03:54.738Z,38.78
2018-05-08T14:04:54.671Z,38.78
2018-05-08T14:06:46.585Z,37.90
2018-05-08T14:07:46.384Z,37.88
2018-05-08T14:09:38.138Z,38.09
2018-05-08T14:10:38.082Z,38.29
2018-05-08T14:12:29.852Z,37.90
2018-05-08T14:13:29.785Z,38.19
2018-05-08T14:15:21.688Z,37.81
2018-05-08T14:16:21.553Z,38.87
2018-05-08T14:18:13.333Z,37.71
2018-05-08T14:19:13.283Z,37.81
2018-05-08T14:21:05.027Z,38.29
2018-05-08T14:22:04.966Z,38.00
2018-05-08T14:23:56.753Z,38.19
2018-05-08T14:24:56.696Z,37.41
2018-05-08T14:26:48.463Z,38.19
2018-05-08T14:27:48.416Z,37.81
2018-05-08T14:29:40.207Z,38.58
2018-05-08T14:30:40.140Z,38.29
2018-05-08T14:32:31.935Z,38.96
2018-05-08T14:33:31.875Z,38.12
2018-05-08T14:35:23.646Z,38.00
2018-05-08T14:36:23.590Z,36.93
2018-05-08T14:38:15.379Z,37.41
2018-05-08T14:39:15.315Z,37.90
2018-05-08T14:41:07.106Z,38.09
2018-05-08T14:42:07.062Z,38.48
2018-05-08T14:43:58.832Z,39.16
2018-05-08T14:44:58.765Z,38.87
2018-05-08T14:46:50.538Z,38.95
2018-05-08T14:47:50.481Z,39.06
2018-05-08T14:49:42.252Z,39.34
2018-05-08T14:50:42.185Z,38.87
2018-05-08T14:52:33.958Z,38.96
2018-05-08T14:53:33.892Z,39.06
2018-05-08T14:55:25.682Z,39.55
2018-05-08T14:56:25.623Z,39.94
2018-05-08T14:58:17.385Z,39.04
2018-05-08T14:59:17.322Z,38.46
2018-05-08T15:01:09.096Z,38.95
2018-05-08T15:02:09.037Z,39.34
2018-05-08T15:04:00.803Z,39.55
2018-05-08T15:05:00.740Z,39.55
2018-05-08T15:06:52.520Z,39.45
2018-05-08T15:07:52.464Z,39.16
2018-05-08T15:09:44.253Z,39.55
2018-05-08T15:10:44.185Z,39.36
2018-05-08T15:12:35.972Z,39.53
2018-05-08T15:13:35.914Z,40.42
2018-05-08T15:15:27.712Z,40.52
2018-05-08T15:16:27.644Z,40.33
2018-05-08T15:18:19.429Z,39.84
2018-05-08T15:19:19.365Z,38.68
2018-05-08T15:21:11.148Z,39.26
2018-05-08T15:22:11.065Z,39.06
2018-05-08T15:24:02.835Z,38.39
2018-05-08T15:25:02.770Z,39.06
2018-05-08T15:26:54.533Z,38.96
2018-05-08T15:27:54.484Z,39.16
2018-05-08T15:29:46.277Z,38.00
2018-05-08T15:30:46.204Z,38.00
2018-05-08T15:32:37.966Z,38.29
2018-05-08T15:33:37.907Z,36.93
2018-05-08T15:35:29.679Z,37.03
2018-05-08T15:36:29.637Z,37.03
2018-05-08T15:38:21.399Z,37.81
2018-05-08T15:39:21.336Z,37.40
2018-05-08T15:41:13.095Z,36.82
2018-05-08T15:42:13.049Z,36.74
2018-05-08T15:44:04.818Z,36.93
2018-05-08T15:45:04.749Z,37.01
2018-05-08T15:46:56.512Z,37.30
2018-05-08T15:47:56.460Z,36.82
2018-05-08T15:49:48.243Z,37.69
2018-05-08T15:50:48.188Z,37.79
2018-05-08T15:52:39.978Z,37.59
2018-05-08T15:53:39.907Z,37.69
2018-05-08T15:55:31.697Z,37.98
2018-05-08T15:56:31.628Z,37.79
2018-05-08T15:58:23.416Z,37.98
2018-05-08T15:59:23.351Z,37.79
2018-05-08T16:01:15.161Z,38.27
2018-05-08T16:02:15.130Z,37.69
2018-05-08T16:04:06.888Z,37.98
2018-05-08T16:05:06.828Z,37.59
2018-05-08T16:06:58.598Z,38.17
2018-05-08T16:07:58.540Z,38.17
2018-05-08T16:09:50.310Z,38.17
2018-05-08T16:10:50.244Z,37.69
2018-05-08T16:12:42.065Z,39.24
2018-05-08T16:13:41.995Z,38.07
2018-05-08T16:15:33.775Z,38.66
2018-05-08T16:16:33.706Z,37.98
2018-05-08T16:18:25.501Z,38.54
2018-05-08T16:19:25.434Z,37.87
2018-05-08T16:21:17.229Z,37.88
2018-05-08T16:22:17.156Z,37.79
2018-05-08T16:24:08.972Z,38.17
2018-05-08T16:25:08.897Z,38.95
2018-05-08T16:27:00.667Z,38.06
2018-05-08T16:28:00.617Z,39.32
2018-05-08T16:29:52.406Z,41.74
2018-05-08T16:30:52.389Z,39.61
2018-05-08T16:32:44.096Z,41.06
2018-05-08T16:33:44.042Z,39.90
2018-05-08T16:35:35.815Z,40.38
2018-05-08T16:36:35.747Z,40.96
2018-05-08T16:38:27.521Z,41.55
2018-05-08T16:39:27.541Z,41.45
2018-05-08T16:41:19.336Z,40.38
2018-05-08T16:42:19.184Z,42.41
2018-05-08T16:44:10.942Z,40.67
2018-05-08T16:45:10.885Z,41.35
2018-05-08T16:47:02.669Z,40.38
2018-05-08T16:48:02.593Z,39.59
2018-05-08T16:49:54.469Z,39.80
2018-05-08T16:50:54.361Z,40.56
2018-05-08T16:52:46.124Z,40.56
2018-05-08T16:53:46.056Z,40.84
2018-05-08T16:55:37.815Z,40.96
2018-05-08T16:56:37.745Z,40.56
2018-05-08T16:58:29.508Z,39.59
2018-05-08T16:59:29.443Z,40.46
2018-05-08T17:01:21.268Z,40.46
2018-05-08T17:02:21.218Z,41.52
2018-05-08T17:04:13.015Z,41.91
2018-05-08T17:05:12.929Z,41.52
2018-05-08T17:07:04.718Z,42.40
2018-05-08T17:08:04.649Z,41.33
2018-05-08T17:09:56.435Z,40.75
2018-05-08T17:10:56.365Z,42.49
2018-05-08T17:12:48.143Z,41.91
2018-05-08T17:13:48.104Z,40.73
2018-05-08T17:15:39.881Z,41.70
2018-05-08T17:16:39.819Z,41.89
2018-05-08T17:18:31.584Z,42.18
2018-05-08T17:19:31.530Z,41.21
2018-05-08T17:21:23.422Z,41.60
2018-05-08T17:22:23.315Z,41.31
2018-05-08T17:24:15.169Z,41.70
2018-05-08T17:25:15.048Z,42.18
2018-05-08T17:27:06.839Z,43.73
2018-05-08T17:28:06.766Z,43.63
2018-05-08T17:29:58.560Z,44.02
2018-05-08T17:30:58.505Z,42.93
2018-05-08T17:32:50.278Z,42.47
2018-05-08T17:33:50.240Z,42.93
2018-05-08T17:35:42.008Z,42.83
2018-05-08T17:36:41.924Z,43.73
2018-05-08T17:38:33.782Z,43.63
2018-05-08T17:39:33.687Z,42.47
2018-05-08T17:41:25.496Z,42.80
2018-05-08T17:42:25.460Z,41.74
2018-05-08T17:44:17.259Z,44.33
2018-05-08T17:45:17.141Z,43.07
2018-05-08T17:47:08.918Z,43.73
2018-05-08T17:48:08.892Z,43.73
2018-05-08T17:50:00.631Z,44.29
2018-05-08T17:51:00.665Z,45.93
2018-05-08T17:52:52.444Z,44.38
2018-05-08T17:53:52.323Z,44.96
2018-05-08T17:55:44.178Z,46.58
2018-05-08T17:56:44.028Z,46.10
2018-05-08T17:58:35.818Z,46.10
2018-05-08T17:59:35.757Z,46.49
2018-05-08T18:01:27.541Z,46.97
2018-05-08T18:02:27.478Z,45.91
2018-05-08T18:04:19.390Z,47.07
2018-05-08T18:05:19.193Z,47.45
2018-05-08T18:07:10.973Z,48.21
2018-05-08T18:08:10.924Z,50.04
2018-05-08T18:10:02.701Z,47.05
2018-05-08T18:11:02.685Z,49.55
2018-05-08T18:12:54.431Z,48.39
2018-05-08T18:13:54.356Z,47.43
2018-05-08T18:15:46.154Z,47.91
2018-05-08T18:16:46.069Z,48.30
2018-05-08T18:18:37.910Z,48.97
2018-05-08T18:19:37.794Z,48.08
2018-05-08T18:21:29.577Z,50.98
2018-05-08T18:22:29.502Z,49.44
2018-05-08T18:24:21.291Z,52.14
2018-05-08T18:25:21.234Z,51.46
2018-05-08T18:27:13.129Z,51.07
2018-05-08T18:28:12.958Z,49.24
2018-05-08T18:30:04.884Z,51.34
2018-05-08T18:31:04.747Z,52.11
2018-05-08T18:32:56.642Z,50.09
2018-05-08T18:33:56.482Z,52.50